Terminal Aerodrome Forecast
Issued by NWS

Home | Current Version | Previous Version | Graphics & Text | Print | Product List | Glossary On
Versions: 1 2 3 4 5 6 7 8 9 10 11 12 13 14 15
000
FTUS43 KGRB 040520
TAFMTW
TAF
KMTW 040520Z 0406/0506 29006KT P6SM SCT090
     FM041500 31009KT P6SM BKN040 BKN080
     FM042200 08008KT P6SM BKN035
     FM050200 07003KT P6SM SCT035=

USA.gov is the U.S. government's official web portal to all federal, state and local government web resources and services.